sensor_id;sensor_type;location;lat;lon;timestamp;P1;durP1;ratioP1;P2;durP2;ratioP2
11439;SDS011;5776;51.814;4.510;2022-12-24T00:00:35;19.23;;;4.00;;
11439;SDS011;5776;51.814;4.510;2022-12-24T00:03:01;30.83;;;5.50;;
11439;SDS011;5776;51.814;4.510;2022-12-24T00:05:27;32.93;;;6.40;;
11439;SDS011;5776;51.814;4.510;2022-12-24T00:07:53;42.13;;;6.17;;
11439;SDS011;5776;51.814;4.510;2022-12-24T00:10:19;31.33;;;5.23;;
11439;SDS011;5776;51.814;4.510;2022-12-24T00:12:45;29.33;;;6.67;;
11439;SDS011;5776;51.814;4.510;2022-12-24T00:15:11;40.07;;;5.97;;
11439;SDS011;5776;51.814;4.510;2022-12-24T00:17:37;34.03;;;5.73;;
11439;SDS011;5776;51.814;4.510;2022-12-24T00:20:03;29.30;;;4.93;;
11439;SDS011;5776;51.814;4.510;2022-12-24T00:22:29;24.70;;;4.40;;
11439;SDS011;5776;51.814;4.510;2022-12-24T00:24:55;32.50;;;5.73;;
11439;SDS011;5776;51.814;4.510;2022-12-24T00:27:20;29.03;;;4.57;;
11439;SDS011;5776;51.814;4.510;2022-12-24T00:29:46;27.63;;;4.83;;
11439;SDS011;5776;51.814;4.510;2022-12-24T00:32:12;33.20;;;5.57;;
11439;SDS011;5776;51.814;4.510;2022-12-24T00:34:39;30.03;;;5.47;;
11439;SDS011;5776;51.814;4.510;2022-12-24T00:37:06;26.70;;;5.80;;
11439;SDS011;5776;51.814;4.510;2022-12-24T00:39:32;32.87;;;5.37;;
11439;SDS011;5776;51.814;4.510;2022-12-24T00:41:58;29.13;;;5.33;;
11439;SDS011;5776;51.814;4.510;2022-12-24T00:44:24;32.67;;;5.70;;
11439;SDS011;5776;51.814;4.510;2022-12-24T00:46:50;30.03;;;5.47;;
11439;SDS011;5776;51.814;4.510;2022-12-24T00:49:16;32.37;;;5.87;;
11439;SDS011;5776;51.814;4.510;2022-12-24T00:51:42;29.43;;;4.90;;
11439;SDS011;5776;51.814;4.510;2022-12-24T00:54:08;26.53;;;5.37;;
11439;SDS011;5776;51.814;4.510;2022-12-24T00:56:34;35.13;;;5.37;;
11439;SDS011;5776;51.814;4.510;2022-12-24T00:59:00;22.57;;;4.60;;
11439;SDS011;5776;51.814;4.510;2022-12-24T01:01:27;28.63;;;3.67;;
11439;SDS011;5776;51.814;4.510;2022-12-24T01:03:53;33.53;;;4.60;;
11439;SDS011;5776;51.814;4.510;2022-12-24T01:06:40;26.23;;;4.73;;
11439;SDS011;5776;51.814;4.510;2022-12-24T01:09:06;27.03;;;4.23;;
11439;SDS011;5776;51.814;4.510;2022-12-24T01:11:32;18.53;;;4.13;;
11439;SDS011;5776;51.814;4.510;2022-12-24T01:13:58;28.73;;;4.47;;
11439;SDS011;5776;51.814;4.510;2022-12-24T01:16:24;22.63;;;4.23;;
11439;SDS011;5776;51.814;4.510;2022-12-24T01:18:50;22.83;;;3.50;;
11439;SDS011;5776;51.814;4.510;2022-12-24T01:21:16;27.07;;;5.47;;
11439;SDS011;5776;51.814;4.510;2022-12-24T01:23:42;25.47;;;4.13;;
11439;SDS011;5776;51.814;4.510;2022-12-24T01:26:08;21.53;;;3.73;;
11439;SDS011;5776;51.814;4.510;2022-12-24T01:28:36;26.10;;;4.73;;
11439;SDS011;5776;51.814;4.510;2022-12-24T01:31:08;20.00;;;4.00;;
11439;SDS011;5776;51.814;4.510;2022-12-24T01:33:42;16.90;;;2.90;;
11439;SDS011;5776;51.814;4.510;2022-12-24T01:36:09;25.60;;;5.50;;
11439;SDS011;5776;51.814;4.510;2022-12-24T01:38:36;32.77;;;4.90;;
11439;SDS011;5776;51.814;4.510;2022-12-24T01:41:02;27.17;;;4.87;;
11439;SDS011;5776;51.814;4.510;2022-12-24T01:44:19;34.83;;;5.17;;
11439;SDS011;5776;51.814;4.510;2022-12-24T01:46:48;35.30;;;4.93;;
11439;SDS011;5776;51.814;4.510;2022-12-24T01:49:16;29.63;;;5.40;;
11439;SDS011;5776;51.814;4.510;2022-12-24T01:51:45;25.77;;;3.93;;
11439;SDS011;5776;51.814;4.510;2022-12-24T01:57:09;21.17;;;4.00;;
11439;SDS011;5776;51.814;4.510;2022-12-24T01:59:39;31.27;;;5.37;;
11439;SDS011;5776;51.814;4.510;2022-12-24T02:02:08;37.37;;;5.90;;
11439;SDS011;5776;51.814;4.510;2022-12-24T02:07:04;32.87;;;5.70;;
11439;SDS011;5776;51.814;4.510;2022-12-24T02:09:29;23.87;;;4.33;;
11439;SDS011;5776;51.814;4.510;2022-12-24T02:11:57;35.23;;;5.93;;
11439;SDS011;5776;51.814;4.510;2022-12-24T02:14:24;34.53;;;6.57;;
11439;SDS011;5776;51.814;4.510;2022-12-24T02:30:47;33.17;;;5.67;;
11439;SDS011;5776;51.814;4.510;2022-12-24T02:33:19;44.13;;;6.33;;
11439;SDS011;5776;51.814;4.510;2022-12-24T02:39:04;52.03;;;7.07;;
11439;SDS011;5776;51.814;4.510;2022-12-24T02:41:38;32.53;;;6.17;;
11439;SDS011;5776;51.814;4.510;2022-12-24T02:44:26;26.30;;;5.30;;
11439;SDS011;5776;51.814;4.510;2022-12-24T02:46:55;33.70;;;5.90;;
11439;SDS011;5776;51.814;4.510;2022-12-24T02:49:24;27.93;;;5.10;;
11439;SDS011;5776;51.814;4.510;2022-12-24T02:51:50;29.87;;;5.60;;
11439;SDS011;5776;51.814;4.510;2022-12-24T02:54:16;32.27;;;5.57;;
11439;SDS011;5776;51.814;4.510;2022-12-24T03:00:03;29.83;;;5.57;;
11439;SDS011;5776;51.814;4.510;2022-12-24T03:05:08;37.73;;;5.33;;
11439;SDS011;5776;51.814;4.510;2022-12-24T03:10:33;35.83;;;5.37;;
11439;SDS011;5776;51.814;4.510;2022-12-24T03:13:14;33.37;;;5.30;;
11439;SDS011;5776;51.814;4.510;2022-12-24T03:15:41;25.13;;;5.10;;
11439;SDS011;5776;51.814;4.510;2022-12-24T03:18:09;26.87;;;4.47;;
11439;SDS011;5776;51.814;4.510;2022-12-24T03:20:44;15.67;;;3.50;;
11439;SDS011;5776;51.814;4.510;2022-12-24T03:23:15;23.77;;;4.43;;
11439;SDS011;5776;51.814;4.510;2022-12-24T03:25:42;17.13;;;3.23;;
11439;SDS011;5776;51.814;4.510;2022-12-24T03:28:09;20.60;;;3.63;;
11439;SDS011;5776;51.814;4.510;2022-12-24T03:30:38;31.30;;;4.47;;
11439;SDS011;5776;51.814;4.510;2022-12-24T03:33:05;25.80;;;4.83;;
11439;SDS011;5776;51.814;4.510;2022-12-24T03:35:31;29.33;;;3.97;;
11439;SDS011;5776;51.814;4.510;2022-12-24T03:37:57;26.93;;;4.30;;
11439;SDS011;5776;51.814;4.510;2022-12-24T03:40:23;35.77;;;5.03;;
11439;SDS011;5776;51.814;4.510;2022-12-24T03:42:49;26.30;;;4.77;;
11439;SDS011;5776;51.814;4.510;2022-12-24T03:45:15;19.60;;;3.53;;
11439;SDS011;5776;51.814;4.510;2022-12-24T03:47:41;31.37;;;5.27;;
11439;SDS011;5776;51.814;4.510;2022-12-24T03:50:07;36.07;;;5.57;;
11439;SDS011;5776;51.814;4.510;2022-12-24T03:52:33;35.83;;;4.93;;
11439;SDS011;5776;51.814;4.510;2022-12-24T03:54:59;32.33;;;4.77;;
11439;SDS011;5776;51.814;4.510;2022-12-24T03:57:25;28.87;;;4.63;;
11439;SDS011;5776;51.814;4.510;2022-12-24T03:59:51;28.70;;;5.73;;
11439;SDS011;5776;51.814;4.510;2022-12-24T04:02:17;32.30;;;5.70;;
11439;SDS011;5776;51.814;4.510;2022-12-24T04:04:43;44.40;;;6.67;;
11439;SDS011;5776;51.814;4.510;2022-12-24T04:07:09;34.30;;;6.03;;
11439;SDS011;5776;51.814;4.510;2022-12-24T04:09:35;44.90;;;6.83;;
11439;SDS011;5776;51.814;4.510;2022-12-24T04:12:01;37.47;;;6.37;;
11439;SDS011;5776;51.814;4.510;2022-12-24T04:14:27;46.30;;;7.50;;
11439;SDS011;5776;51.814;4.510;2022-12-24T04:16:53;30.13;;;4.93;;
11439;SDS011;5776;51.814;4.510;2022-12-24T04:19:19;37.20;;;5.80;;
11439;SDS011;5776;51.814;4.510;2022-12-24T04:21:45;50.00;;;7.50;;
11439;SDS011;5776;51.814;4.510;2022-12-24T04:24:11;37.17;;;6.17;;
11439;SDS011;5776;51.814;4.510;2022-12-24T04:26:37;51.40;;;7.43;;
11439;SDS011;5776;51.814;4.510;2022-12-24T04:29:03;43.07;;;6.93;;
11439;SDS011;5776;51.814;4.510;2022-12-24T04:31:28;35.37;;;5.70;;
11439;SDS011;5776;51.814;4.510;2022-12-24T04:33:54;42.77;;;6.67;;
11439;SDS011;5776;51.814;4.510;2022-12-24T04:36:20;34.37;;;6.33;;
11439;SDS011;5776;51.814;4.510;2022-12-24T04:38:46;39.93;;;6.57;;
11439;SDS011;5776;51.814;4.510;2022-12-24T04:41:15;40.40;;;6.90;;
11439;SDS011;5776;51.814;4.510;2022-12-24T04:43:43;50.20;;;7.00;;
11439;SDS011;5776;51.814;4.510;2022-12-24T04:46:10;37.53;;;6.10;;
11439;SDS011;5776;51.814;4.510;2022-12-24T04:48:43;42.37;;;6.43;;
11439;SDS011;5776;51.814;4.510;2022-12-24T04:51:10;24.17;;;4.93;;
11439;SDS011;5776;51.814;4.510;2022-12-24T04:53:37;40.17;;;6.30;;
11439;SDS011;5776;51.814;4.510;2022-12-24T04:56:08;39.83;;;6.17;;
11439;SDS011;5776;51.814;4.510;2022-12-24T04:58:37;48.87;;;7.47;;
11439;SDS011;5776;51.814;4.510;2022-12-24T05:01:04;35.10;;;6.37;;
11439;SDS011;5776;51.814;4.510;2022-12-24T05:03:30;36.43;;;6.53;;
11439;SDS011;5776;51.814;4.510;2022-12-24T05:06:00;46.37;;;6.90;;
11439;SDS011;5776;51.814;4.510;2022-12-24T05:08:27;45.53;;;7.10;;
11439;SDS011;5776;51.814;4.510;2022-12-24T05:10:56;49.20;;;7.17;;
11439;SDS011;5776;51.814;4.510;2022-12-24T05:13:24;44.03;;;7.80;;
11439;SDS011;5776;51.814;4.510;2022-12-24T05:15:52;41.37;;;6.23;;
11439;SDS011;5776;51.814;4.510;2022-12-24T05:18:18;39.37;;;6.77;;
11439;SDS011;5776;51.814;4.510;2022-12-24T05:20:44;36.40;;;6.30;;
11439;SDS011;5776;51.814;4.510;2022-12-24T05:23:18;32.57;;;5.20;;
11439;SDS011;5776;51.814;4.510;2022-12-24T05:26:04;38.87;;;5.70;;
11439;SDS011;5776;51.814;4.510;2022-12-24T05:28:49;46.83;;;7.50;;
11439;SDS011;5776;51.814;4.510;2022-12-24T05:31:16;40.37;;;7.60;;
11439;SDS011;5776;51.814;4.510;2022-12-24T05:33:42;41.27;;;6.60;;
11439;SDS011;5776;51.814;4.510;2022-12-24T05:36:08;46.70;;;7.10;;
11439;SDS011;5776;51.814;4.510;2022-12-24T05:38:34;41.17;;;6.37;;
11439;SDS011;5776;51.814;4.510;2022-12-24T05:41:01;42.80;;;7.30;;
11439;SDS011;5776;51.814;4.510;2022-12-24T05:43:27;40.83;;;6.20;;
11439;SDS011;5776;51.814;4.510;2022-12-24T05:45:59;30.97;;;5.13;;
11439;SDS011;5776;51.814;4.510;2022-12-24T05:48:26;40.10;;;6.87;;
11439;SDS011;5776;51.814;4.510;2022-12-24T05:50:53;39.53;;;6.37;;
11439;SDS011;5776;51.814;4.510;2022-12-24T05:53:19;48.67;;;7.43;;
11439;SDS011;5776;51.814;4.510;2022-12-24T05:55:46;33.27;;;6.50;;
11439;SDS011;5776;51.814;4.510;2022-12-24T05:58:12;45.37;;;7.73;;
11439;SDS011;5776;51.814;4.510;2022-12-24T06:00:38;30.40;;;5.80;;
11439;SDS011;5776;51.814;4.510;2022-12-24T06:03:04;34.70;;;6.40;;
11439;SDS011;5776;51.814;4.510;2022-12-24T06:05:30;32.50;;;5.50;;
11439;SDS011;5776;51.814;4.510;2022-12-24T06:07:56;26.37;;;4.80;;
11439;SDS011;5776;51.814;4.510;2022-12-24T06:10:22;38.10;;;5.17;;
11439;SDS011;5776;51.814;4.510;2022-12-24T06:12:48;34.63;;;5.03;;
11439;SDS011;5776;51.814;4.510;2022-12-24T06:15:14;22.00;;;4.83;;
11439;SDS011;5776;51.814;4.510;2022-12-24T06:17:40;26.43;;;4.40;;
11439;SDS011;5776;51.814;4.510;2022-12-24T06:20:06;25.13;;;3.80;;
11439;SDS011;5776;51.814;4.510;2022-12-24T06:22:32;25.60;;;4.63;;
11439;SDS011;5776;51.814;4.510;2022-12-24T06:24:58;25.37;;;4.43;;
11439;SDS011;5776;51.814;4.510;2022-12-24T06:27:24;37.87;;;4.83;;
11439;SDS011;5776;51.814;4.510;2022-12-24T06:29:50;28.27;;;4.73;;
11439;SDS011;5776;51.814;4.510;2022-12-24T06:32:16;34.57;;;4.83;;
11439;SDS011;5776;51.814;4.510;2022-12-24T06:34:42;28.53;;;4.20;;
11439;SDS011;5776;51.814;4.510;2022-12-24T06:37:07;22.87;;;4.33;;
11439;SDS011;5776;51.814;4.510;2022-12-24T06:39:45;36.67;;;5.93;;
11439;SDS011;5776;51.814;4.510;2022-12-24T06:42:12;26.27;;;4.00;;
11439;SDS011;5776;51.814;4.510;2022-12-24T06:44:38;25.60;;;3.67;;
11439;SDS011;5776;51.814;4.510;2022-12-24T06:47:04;36.73;;;5.07;;
11439;SDS011;5776;51.814;4.510;2022-12-24T06:49:30;28.23;;;4.83;;
11439;SDS011;5776;51.814;4.510;2022-12-24T06:51:56;34.20;;;5.47;;
11439;SDS011;5776;51.814;4.510;2022-12-24T06:54:22;27.00;;;4.20;;
11439;SDS011;5776;51.814;4.510;2022-12-24T06:56:47;35.10;;;4.13;;
11439;SDS011;5776;51.814;4.510;2022-12-24T06:59:13;31.93;;;4.77;;
11439;SDS011;5776;51.814;4.510;2022-12-24T07:01:39;26.77;;;4.20;;
11439;SDS011;5776;51.814;4.510;2022-12-24T07:04:05;29.20;;;5.03;;
11439;SDS011;5776;51.814;4.510;2022-12-24T07:06:31;25.50;;;4.27;;
11439;SDS011;5776;51.814;4.510;2022-12-24T07:08:57;19.27;;;3.67;;
11439;SDS011;5776;51.814;4.510;2022-12-24T07:11:23;28.77;;;4.33;;
11439;SDS011;5776;51.814;4.510;2022-12-24T07:13:50;26.13;;;3.43;;
11439;SDS011;5776;51.814;4.510;2022-12-24T07:16:16;22.07;;;3.23;;
11439;SDS011;5776;51.814;4.510;2022-12-24T07:18:42;24.33;;;4.47;;
11439;SDS011;5776;51.814;4.510;2022-12-24T07:21:08;24.77;;;3.87;;
11439;SDS011;5776;51.814;4.510;2022-12-24T07:23:35;29.03;;;4.37;;
11439;SDS011;5776;51.814;4.510;2022-12-24T07:26:02;28.97;;;3.80;;
11439;SDS011;5776;51.814;4.510;2022-12-24T07:28:29;23.03;;;4.77;;
11439;SDS011;5776;51.814;4.510;2022-12-24T07:30:55;17.10;;;3.77;;
11439;SDS011;5776;51.814;4.510;2022-12-24T07:33:23;28.37;;;4.50;;
11439;SDS011;5776;51.814;4.510;2022-12-24T07:36:13;26.50;;;5.50;;
11439;SDS011;5776;51.814;4.510;2022-12-24T07:38:43;24.67;;;4.07;;
11439;SDS011;5776;51.814;4.510;2022-12-24T07:41:08;19.07;;;3.77;;
11439;SDS011;5776;51.814;4.510;2022-12-24T07:43:34;31.50;;;4.47;;
11439;SDS011;5776;51.814;4.510;2022-12-24T07:45:59;21.23;;;3.90;;
11439;SDS011;5776;51.814;4.510;2022-12-24T07:48:27;27.00;;;4.17;;
11439;SDS011;5776;51.814;4.510;2022-12-24T07:50:54;27.63;;;4.00;;
11439;SDS011;5776;51.814;4.510;2022-12-24T07:53:22;21.90;;;3.73;;
11439;SDS011;5776;51.814;4.510;2022-12-24T07:55:48;24.47;;;5.27;;
11439;SDS011;5776;51.814;4.510;2022-12-24T07:58:15;24.33;;;4.37;;
11439;SDS011;5776;51.814;4.510;2022-12-24T08:00:41;25.37;;;4.20;;
11439;SDS011;5776;51.814;4.510;2022-12-24T08:03:06;30.20;;;4.00;;
11439;SDS011;5776;51.814;4.510;2022-12-24T08:05:34;19.57;;;3.70;;
11439;SDS011;5776;51.814;4.510;2022-12-24T08:08:01;21.47;;;3.87;;
11439;SDS011;5776;51.814;4.510;2022-12-24T08:10:27;19.13;;;4.20;;
11439;SDS011;5776;51.814;4.510;2022-12-24T08:12:53;22.17;;;4.10;;
11439;SDS011;5776;51.814;4.510;2022-12-24T08:15:19;19.20;;;4.40;;
11439;SDS011;5776;51.814;4.510;2022-12-24T08:17:45;23.07;;;4.27;;
11439;SDS011;5776;51.814;4.510;2022-12-24T08:20:11;28.03;;;4.70;;
11439;SDS011;5776;51.814;4.510;2022-12-24T08:22:37;23.13;;;3.97;;
11439;SDS011;5776;51.814;4.510;2022-12-24T08:25:03;21.47;;;3.40;;
11439;SDS011;5776;51.814;4.510;2022-12-24T08:27:29;17.33;;;3.63;;
11439;SDS011;5776;51.814;4.510;2022-12-24T08:29:56;31.73;;;4.17;;
11439;SDS011;5776;51.814;4.510;2022-12-24T08:32:22;28.13;;;4.77;;
11439;SDS011;5776;51.814;4.510;2022-12-24T08:34:48;22.67;;;4.00;;
11439;SDS011;5776;51.814;4.510;2022-12-24T08:37:14;21.47;;;3.57;;
11439;SDS011;5776;51.814;4.510;2022-12-24T08:39:40;23.67;;;4.00;;
11439;SDS011;5776;51.814;4.510;2022-12-24T08:42:06;20.33;;;3.73;;
11439;SDS011;5776;51.814;4.510;2022-12-24T08:44:32;16.33;;;2.97;;
11439;SDS011;5776;51.814;4.510;2022-12-24T08:46:57;17.90;;;3.00;;
11439;SDS011;5776;51.814;4.510;2022-12-24T08:49:23;27.00;;;3.43;;
11439;SDS011;5776;51.814;4.510;2022-12-24T08:51:49;21.57;;;3.90;;
11439;SDS011;5776;51.814;4.510;2022-12-24T08:54:16;18.03;;;3.43;;
11439;SDS011;5776;51.814;4.510;2022-12-24T08:56:42;27.20;;;4.27;;
11439;SDS011;5776;51.814;4.510;2022-12-24T08:59:09;15.03;;;2.87;;
11439;SDS011;5776;51.814;4.510;2022-12-24T09:01:36;19.17;;;3.90;;
11439;SDS011;5776;51.814;4.510;2022-12-24T09:04:01;20.53;;;4.30;;
11439;SDS011;5776;51.814;4.510;2022-12-24T09:06:27;22.93;;;3.47;;
11439;SDS011;5776;51.814;4.510;2022-12-24T09:08:53;29.77;;;4.10;;
11439;SDS011;5776;51.814;4.510;2022-12-24T09:11:19;13.33;;;2.60;;
11439;SDS011;5776;51.814;4.510;2022-12-24T09:13:45;25.13;;;3.70;;
11439;SDS011;5776;51.814;4.510;2022-12-24T09:16:11;20.77;;;3.97;;
11439;SDS011;5776;51.814;4.510;2022-12-24T09:18:38;18.83;;;4.13;;
11439;SDS011;5776;51.814;4.510;2022-12-24T09:21:05;24.13;;;3.43;;
11439;SDS011;5776;51.814;4.510;2022-12-24T09:23:34;17.73;;;2.47;;
11439;SDS011;5776;51.814;4.510;2022-12-24T09:26:04;16.43;;;3.33;;
11439;SDS011;5776;51.814;4.510;2022-12-24T09:28:34;14.67;;;3.37;;
11439;SDS011;5776;51.814;4.510;2022-12-24T09:31:01;24.77;;;4.10;;
11439;SDS011;5776;51.814;4.510;2022-12-24T09:33:30;23.13;;;3.73;;
11439;SDS011;5776;51.814;4.510;2022-12-24T09:35:58;22.47;;;4.00;;
11439;SDS011;5776;51.814;4.510;2022-12-24T09:38:24;24.57;;;3.80;;
11439;SDS011;5776;51.814;4.510;2022-12-24T09:40:50;32.63;;;5.80;;
11439;SDS011;5776;51.814;4.510;2022-12-24T09:43:19;23.63;;;4.10;;
11439;SDS011;5776;51.814;4.510;2022-12-24T09:48:15;26.70;;;4.07;;
11439;SDS011;5776;51.814;4.510;2022-12-24T09:53:22;28.57;;;4.83;;
11439;SDS011;5776;51.814;4.510;2022-12-24T09:56:03;28.00;;;5.00;;
11439;SDS011;5776;51.814;4.510;2022-12-24T09:58:46;23.47;;;3.90;;
11439;SDS011;5776;51.814;4.510;2022-12-24T10:01:16;24.40;;;5.27;;
11439;SDS011;5776;51.814;4.510;2022-12-24T10:03:42;39.60;;;5.40;;
11439;SDS011;5776;51.814;4.510;2022-12-24T10:14:13;28.70;;;4.23;;
11439;SDS011;5776;51.814;4.510;2022-12-24T10:19:55;29.37;;;4.67;;
11439;SDS011;5776;51.814;4.510;2022-12-24T10:25:33;20.37;;;3.70;;
11439;SDS011;5776;51.814;4.510;2022-12-24T10:28:11;27.53;;;4.53;;
11439;SDS011;5776;51.814;4.510;2022-12-24T10:30:41;24.00;;;3.60;;
11439;SDS011;5776;51.814;4.510;2022-12-24T10:33:17;23.10;;;4.17;;
11439;SDS011;5776;51.814;4.510;2022-12-24T10:35:46;26.67;;;4.57;;
11439;SDS011;5776;51.814;4.510;2022-12-24T10:38:17;27.03;;;5.13;;
11439;SDS011;5776;51.814;4.510;2022-12-24T10:40:43;25.67;;;3.37;;
11439;SDS011;5776;51.814;4.510;2022-12-24T10:43:21;23.03;;;4.13;;
11439;SDS011;5776;51.814;4.510;2022-12-24T10:45:50;19.03;;;3.80;;
11439;SDS011;5776;51.814;4.510;2022-12-24T10:48:23;20.73;;;3.50;;
11439;SDS011;5776;51.814;4.510;2022-12-24T10:50:55;22.70;;;4.50;;
11439;SDS011;5776;51.814;4.510;2022-12-24T10:53:35;20.23;;;3.37;;
11439;SDS011;5776;51.814;4.510;2022-12-24T10:56:07;27.57;;;4.13;;
11439;SDS011;5776;51.814;4.510;2022-12-24T10:58:36;26.33;;;3.63;;
11439;SDS011;5776;51.814;4.510;2022-12-24T11:01:08;31.03;;;5.10;;
11439;SDS011;5776;51.814;4.510;2022-12-24T11:03:35;31.50;;;4.30;;
11439;SDS011;5776;51.814;4.510;2022-12-24T11:06:06;26.07;;;4.33;;
11439;SDS011;5776;51.814;4.510;2022-12-24T11:08:35;23.83;;;4.40;;
11439;SDS011;5776;51.814;4.510;2022-12-24T11:11:10;21.03;;;4.10;;
11439;SDS011;5776;51.814;4.510;2022-12-24T11:13:39;22.50;;;4.03;;
11439;SDS011;5776;51.814;4.510;2022-12-24T11:16:29;31.40;;;3.70;;
11439;SDS011;5776;51.814;4.510;2022-12-24T11:18:58;20.73;;;3.43;;
11439;SDS011;5776;51.814;4.510;2022-12-24T11:21:39;18.07;;;3.03;;
11439;SDS011;5776;51.814;4.510;2022-12-24T11:26:38;24.90;;;4.20;;
11439;SDS011;5776;51.814;4.510;2022-12-24T11:31:46;29.43;;;4.67;;
11439;SDS011;5776;51.814;4.510;2022-12-24T11:34:17;20.80;;;3.40;;
11439;SDS011;5776;51.814;4.510;2022-12-24T11:39:39;30.20;;;4.43;;
11439;SDS011;5776;51.814;4.510;2022-12-24T11:42:18;22.57;;;3.77;;
11439;SDS011;5776;51.814;4.510;2022-12-24T11:44:50;19.43;;;4.03;;
11439;SDS011;5776;51.814;4.510;2022-12-24T11:47:16;23.07;;;4.50;;
11439;SDS011;5776;51.814;4.510;2022-12-24T11:49:42;22.07;;;4.10;;
11439;SDS011;5776;51.814;4.510;2022-12-24T11:57:30;20.03;;;3.37;;
11439;SDS011;5776;51.814;4.510;2022-12-24T12:00:08;25.57;;;3.30;;
11439;SDS011;5776;51.814;4.510;2022-12-24T12:02:38;23.53;;;4.27;;
11439;SDS011;5776;51.814;4.510;2022-12-24T12:05:12;21.93;;;3.87;;
11439;SDS011;5776;51.814;4.510;2022-12-24T12:07:45;21.97;;;3.57;;
11439;SDS011;5776;51.814;4.510;2022-12-24T12:10:19;30.53;;;3.63;;
11439;SDS011;5776;51.814;4.510;2022-12-24T12:12:59;20.13;;;2.93;;
11439;SDS011;5776;51.814;4.510;2022-12-24T12:15:32;33.73;;;4.00;;
11439;SDS011;5776;51.814;4.510;2022-12-24T12:18:12;28.13;;;4.30;;
11439;SDS011;5776;51.814;4.510;2022-12-24T12:20:44;23.13;;;3.80;;
11439;SDS011;5776;51.814;4.510;2022-12-24T12:23:32;17.60;;;3.07;;
11439;SDS011;5776;51.814;4.510;2022-12-24T12:33:47;27.50;;;4.27;;
11439;SDS011;5776;51.814;4.510;2022-12-24T12:36:20;23.27;;;4.07;;
11439;SDS011;5776;51.814;4.510;2022-12-24T12:38:50;17.50;;;4.27;;
11439;SDS011;5776;51.814;4.510;2022-12-24T12:41:25;22.60;;;3.87;;
11439;SDS011;5776;51.814;4.510;2022-12-24T12:49:14;25.70;;;3.83;;
11439;SDS011;5776;51.814;4.510;2022-12-24T12:52:09;19.20;;;4.03;;
11439;SDS011;5776;51.814;4.510;2022-12-24T12:57:12;22.10;;;3.17;;
11439;SDS011;5776;51.814;4.510;2022-12-24T12:59:50;20.70;;;4.17;;
11439;SDS011;5776;51.814;4.510;2022-12-24T13:11:47;28.33;;;3.80;;
11439;SDS011;5776;51.814;4.510;2022-12-24T13:23:21;22.87;;;3.90;;
11439;SDS011;5776;51.814;4.510;2022-12-24T13:25:51;25.73;;;4.20;;
11439;SDS011;5776;51.814;4.510;2022-12-24T13:30:45;23.20;;;3.60;;
11439;SDS011;5776;51.814;4.510;2022-12-24T13:33:13;24.57;;;3.90;;
11439;SDS011;5776;51.814;4.510;2022-12-24T13:38:31;28.47;;;4.13;;
11439;SDS011;5776;51.814;4.510;2022-12-24T13:49:38;30.47;;;4.13;;
11439;SDS011;5776;51.814;4.510;2022-12-24T13:52:13;23.13;;;4.17;;
11439;SDS011;5776;51.814;4.510;2022-12-24T14:00:06;22.17;;;4.10;;
11439;SDS011;5776;51.814;4.510;2022-12-24T14:05:47;21.00;;;4.03;;
11439;SDS011;5776;51.814;4.510;2022-12-24T14:18:37;17.90;;;4.03;;
11439;SDS011;5776;51.814;4.510;2022-12-24T14:21:05;20.03;;;4.50;;
11439;SDS011;5776;51.814;4.510;2022-12-24T14:23:44;29.10;;;4.27;;
11439;SDS011;5776;51.814;4.510;2022-12-24T14:26:17;28.80;;;3.73;;
11439;SDS011;5776;51.814;4.510;2022-12-24T14:28:55;21.00;;;3.63;;
11439;SDS011;5776;51.814;4.510;2022-12-24T14:31:26;17.73;;;3.30;;
11439;SDS011;5776;51.814;4.510;2022-12-24T14:34:03;17.00;;;3.40;;
11439;SDS011;5776;51.814;4.510;2022-12-24T14:36:30;17.50;;;2.73;;
11439;SDS011;5776;51.814;4.510;2022-12-24T14:38:57;21.70;;;3.83;;
11439;SDS011;5776;51.814;4.510;2022-12-24T14:44:24;17.80;;;3.73;;
11439;SDS011;5776;51.814;4.510;2022-12-24T14:50:03;18.70;;;3.40;;
11439;SDS011;5776;51.814;4.510;2022-12-24T14:52:49;16.63;;;3.13;;
11439;SDS011;5776;51.814;4.510;2022-12-24T14:55:29;21.97;;;4.70;;
11439;SDS011;5776;51.814;4.510;2022-12-24T14:58:48;18.93;;;3.30;;
11439;SDS011;5776;51.814;4.510;2022-12-24T15:01:18;14.83;;;3.37;;
11439;SDS011;5776;51.814;4.510;2022-12-24T15:06:50;17.13;;;2.83;;
11439;SDS011;5776;51.814;4.510;2022-12-24T15:09:21;25.23;;;3.93;;
11439;SDS011;5776;51.814;4.510;2022-12-24T15:11:54;20.90;;;3.63;;
11439;SDS011;5776;51.814;4.510;2022-12-24T15:14:23;23.53;;;4.20;;
11439;SDS011;5776;51.814;4.510;2022-12-24T15:16:54;18.03;;;3.33;;
11439;SDS011;5776;51.814;4.510;2022-12-24T15:19:24;21.30;;;3.50;;
11439;SDS011;5776;51.814;4.510;2022-12-24T15:21:53;21.70;;;3.97;;
11439;SDS011;5776;51.814;4.510;2022-12-24T15:26:54;17.43;;;3.30;;
11439;SDS011;5776;51.814;4.510;2022-12-24T15:29:24;20.47;;;3.43;;
11439;SDS011;5776;51.814;4.510;2022-12-24T15:31:55;15.23;;;3.83;;
11439;SDS011;5776;51.814;4.510;2022-12-24T15:34:28;19.97;;;4.83;;
11439;SDS011;5776;51.814;4.510;2022-12-24T15:37:06;17.40;;;4.80;;
11439;SDS011;5776;51.814;4.510;2022-12-24T15:39:53;19.30;;;4.70;;
11439;SDS011;5776;51.814;4.510;2022-12-24T15:42:21;16.10;;;4.47;;
11439;SDS011;5776;51.814;4.510;2022-12-24T15:44:54;19.50;;;4.43;;
11439;SDS011;5776;51.814;4.510;2022-12-24T15:47:31;17.67;;;4.67;;
11439;SDS011;5776;51.814;4.510;2022-12-24T15:50:04;18.67;;;3.83;;
11439;SDS011;5776;51.814;4.510;2022-12-24T15:52:47;15.90;;;4.17;;
11439;SDS011;5776;51.814;4.510;2022-12-24T15:55:28;15.57;;;3.77;;
11439;SDS011;5776;51.814;4.510;2022-12-24T15:58:15;20.90;;;4.37;;
11439;SDS011;5776;51.814;4.510;2022-12-24T16:03:25;21.27;;;5.40;;
11439;SDS011;5776;51.814;4.510;2022-12-24T16:06:25;19.23;;;5.80;;
11439;SDS011;5776;51.814;4.510;2022-12-24T16:08:44;16.70;;;4.37;;
11439;SDS011;5776;51.814;4.510;2022-12-24T16:11:12;24.43;;;5.43;;
11439;SDS011;5776;51.814;4.510;2022-12-24T16:13:53;23.07;;;5.30;;
11439;SDS011;5776;51.814;4.510;2022-12-24T16:19:05;25.80;;;7.23;;
11439;SDS011;5776;51.814;4.510;2022-12-24T16:21:36;30.17;;;6.73;;
11439;SDS011;5776;51.814;4.510;2022-12-24T16:24:12;22.67;;;5.93;;
11439;SDS011;5776;51.814;4.510;2022-12-24T16:26:41;21.07;;;6.20;;
11439;SDS011;5776;51.814;4.510;2022-12-24T16:29:08;19.27;;;5.43;;
11439;SDS011;5776;51.814;4.510;2022-12-24T16:31:37;12.50;;;4.20;;
11439;SDS011;5776;51.814;4.510;2022-12-24T16:34:09;10.60;;;3.60;;
11439;SDS011;5776;51.814;4.510;2022-12-24T16:36:39;8.33;;;2.90;;
11439;SDS011;5776;51.814;4.510;2022-12-24T16:39:11;17.67;;;4.33;;
11439;SDS011;5776;51.814;4.510;2022-12-24T16:41:50;13.23;;;4.25;;
11439;SDS011;5776;51.814;4.510;2022-12-24T16:44:36;20.43;;;5.13;;
11439;SDS011;5776;51.814;4.510;2022-12-24T16:47:03;11.63;;;3.77;;
11439;SDS011;5776;51.814;4.510;2022-12-24T16:49:31;8.57;;;3.50;;
11439;SDS011;5776;51.814;4.510;2022-12-24T16:51:57;20.73;;;6.00;;
11439;SDS011;5776;51.814;4.510;2022-12-24T16:54:22;24.53;;;7.13;;
11439;SDS011;5776;51.814;4.510;2022-12-24T16:56:48;17.07;;;6.07;;
11439;SDS011;5776;51.814;4.510;2022-12-24T16:59:18;16.00;;;5.60;;
11439;SDS011;5776;51.814;4.510;2022-12-24T17:01:46;15.77;;;6.57;;
11439;SDS011;5776;51.814;4.510;2022-12-24T17:04:13;18.30;;;6.30;;
11439;SDS011;5776;51.814;4.510;2022-12-24T17:06:40;18.03;;;5.10;;
11439;SDS011;5776;51.814;4.510;2022-12-24T17:09:07;24.80;;;8.30;;
11439;SDS011;5776;51.814;4.510;2022-12-24T17:11:34;17.83;;;6.90;;
11439;SDS011;5776;51.814;4.510;2022-12-24T17:14:01;21.00;;;7.43;;
11439;SDS011;5776;51.814;4.510;2022-12-24T17:16:27;12.30;;;4.30;;
11439;SDS011;5776;51.814;4.510;2022-12-24T17:18:54;21.07;;;6.73;;
11439;SDS011;5776;51.814;4.510;2022-12-24T17:21:20;13.53;;;5.10;;
11439;SDS011;5776;51.814;4.510;2022-12-24T17:23:46;21.40;;;6.60;;
11439;SDS011;5776;51.814;4.510;2022-12-24T17:26:13;25.73;;;7.73;;
11439;SDS011;5776;51.814;4.510;2022-12-24T17:28:39;17.87;;;6.77;;